createdAt,value
2023-05-16T00:01:48.819Z,11.48
2023-05-16T00:04:18.760Z,9.65
2023-05-16T00:06:46.992Z,13.60
2023-05-16T00:09:15.154Z,10.85
2023-05-16T00:15:44.303Z,11.73
2023-05-16T00:18:15.689Z,13.63
2023-05-16T00:20:45.430Z,15.02
2023-05-16T00:23:13.624Z,11.15
2023-05-16T00:25:41.828Z,15.25
2023-05-16T00:28:09.999Z,13.50
2023-05-16T00:30:38.354Z,13.48
2023-05-16T00:33:06.653Z,13.35
2023-05-16T00:35:34.865Z,13.98
2023-05-16T00:38:04.512Z,13.05
2023-05-16T00:40:32.964Z,13.15
2023-05-16T00:43:01.179Z,13.25
2023-05-16T00:45:29.562Z,17.02
2023-05-16T00:47:57.949Z,16.33
2023-05-16T00:50:26.374Z,14.98
2023-05-16T00:52:54.785Z,14.30
2023-05-16T00:55:24.583Z,15.85
2023-05-16T00:57:53.523Z,15.43
2023-05-16T01:00:21.808Z,16.92
2023-05-16T01:02:53.448Z,17.20
2023-05-16T01:05:22.250Z,20.70
2023-05-16T01:07:50.441Z,24.00
2023-05-16T01:10:18.698Z,19.77
2023-05-16T01:13:02.336Z,18.60
2023-05-16T01:15:34.311Z,16.60
2023-05-16T01:18:08.012Z,16.33
2023-05-16T01:20:42.596Z,18.23
2023-05-16T01:23:29.803Z,18.52
2023-05-16T01:26:09.905Z,18.27
2023-05-16T01:28:39.221Z,18.75
2023-05-16T01:31:07.593Z,17.30
2023-05-16T01:33:35.794Z,22.15
2023-05-16T01:36:12.436Z,19.73
2023-05-16T01:38:45.619Z,16.70
2023-05-16T01:41:22.101Z,16.85
2023-05-16T01:43:53.649Z,15.63
2023-05-16T01:46:29.937Z,18.50
2023-05-16T01:49:07.175Z,17.88
2023-05-16T01:51:38.690Z,20.30
2023-05-16T01:54:11.457Z,20.20
2023-05-16T01:56:46.294Z,20.85
2023-05-16T01:59:15.104Z,22.35
2023-05-16T02:01:43.546Z,21.33
2023-05-16T02:04:13.580Z,20.73
2023-05-16T02:06:43.711Z,20.40
2023-05-16T02:09:11.946Z,20.35
2023-05-16T02:11:43.598Z,22.60
2023-05-16T02:14:11.945Z,22.58
2023-05-16T02:16:40.249Z,19.40
2023-05-16T02:19:09.133Z,23.92
2023-05-16T02:21:37.359Z,19.50
2023-05-16T02:24:06.980Z,17.63
2023-05-16T02:26:35.125Z,20.48
2023-05-16T02:29:04.722Z,20.40
2023-05-16T02:31:34.861Z,19.50
2023-05-16T02:34:03.909Z,18.55
2023-05-16T02:36:32.112Z,19.58
2023-05-16T02:39:00.343Z,20.98
2023-05-16T02:41:28.535Z,21.02
2023-05-16T02:43:56.687Z,19.73
2023-05-16T02:46:30.726Z,19.25
2023-05-16T02:48:59.240Z,25.88
2023-05-16T02:51:29.264Z,19.90
2023-05-16T02:53:59.709Z,24.50
2023-05-16T02:56:28.244Z,21.08
2023-05-16T02:58:56.700Z,20.42
2023-05-16T03:01:25.006Z,19.75
2023-05-16T03:03:54.722Z,17.80
2023-05-16T03:06:23.117Z,21.80
2023-05-16T03:08:51.283Z,20.58
2023-05-16T03:11:20.930Z,21.83
2023-05-16T03:13:49.367Z,19.17
2023-05-16T03:16:17.724Z,20.75
2023-05-16T03:18:46.098Z,20.67
2023-05-16T03:21:15.893Z,21.88
2023-05-16T03:23:46.288Z,20.92
2023-05-16T03:26:14.498Z,21.88
2023-05-16T03:28:42.853Z,18.67
2023-05-16T03:31:11.117Z,21.73
2023-05-16T03:33:39.295Z,19.48
2023-05-16T03:36:07.993Z,18.13
2023-05-16T03:38:37.650Z,20.35
2023-05-16T03:41:06.029Z,19.67
2023-05-16T03:43:34.351Z,19.58
2023-05-16T03:46:02.790Z,19.40
2023-05-16T03:48:31.103Z,21.80
2023-05-16T03:50:59.298Z,20.95
2023-05-16T03:53:27.816Z,21.65
2023-05-16T03:55:57.370Z,17.23
2023-05-16T03:58:25.613Z,18.20
2023-05-16T04:00:53.765Z,18.98
2023-05-16T04:03:28.517Z,20.13
2023-05-16T04:05:57.311Z,19.08
2023-05-16T04:08:25.814Z,19.55
2023-05-16T04:10:54.076Z,17.90
2023-05-16T04:13:23.561Z,19.45
2023-05-16T04:15:51.801Z,18.48
2023-05-16T04:18:20.078Z,18.52
2023-05-16T04:20:48.680Z,20.02
2023-05-16T04:23:16.815Z,20.50
2023-05-16T04:25:45.101Z,18.27
2023-05-16T04:28:13.587Z,22.23
2023-05-16T04:30:43.151Z,24.67
2023-05-16T04:33:11.304Z,22.13
2023-05-16T04:35:39.896Z,18.98
2023-05-16T04:38:08.655Z,18.70
2023-05-16T04:40:36.899Z,19.08
2023-05-16T04:43:05.112Z,19.73
2023-05-16T04:45:33.863Z,22.08
2023-05-16T04:48:05.125Z,18.50
2023-05-16T04:50:33.487Z,18.20
2023-05-16T04:53:01.621Z,16.67
2023-05-16T04:55:29.984Z,14.60
2023-05-16T04:57:58.546Z,16.08
2023-05-16T05:00:27.227Z,26.83
2023-05-16T05:02:55.733Z,15.88
2023-05-16T05:05:25.486Z,18.83
2023-05-16T05:07:54.230Z,14.82
2023-05-16T05:10:22.532Z,17.73
2023-05-16T05:12:50.833Z,14.88
2023-05-16T05:15:19.385Z,15.82
2023-05-16T05:17:47.708Z,12.88
2023-05-16T05:20:16.013Z,17.20
2023-05-16T05:22:45.567Z,16.00
2023-05-16T05:25:14.012Z,11.25
2023-05-16T05:27:42.267Z,12.98
2023-05-16T05:30:11.420Z,12.00
2023-05-16T05:32:39.628Z,10.05
2023-05-16T05:35:08.734Z,12.32
2023-05-16T05:37:37.032Z,10.35
2023-05-16T05:40:09.106Z,11.07
2023-05-16T05:42:37.246Z,10.70
2023-05-16T05:45:07.628Z,11.63
2023-05-16T05:47:35.988Z,10.80
2023-05-16T05:50:05.716Z,9.73
2023-05-16T05:52:33.904Z,12.27
2023-05-16T05:55:02.095Z,13.32
2023-05-16T05:57:31.655Z,10.73
2023-05-16T05:59:59.911Z,12.45
2023-05-16T06:02:29.772Z,12.95
2023-05-16T06:04:58.269Z,11.80
2023-05-16T06:07:26.548Z,12.48
2023-05-16T06:09:54.770Z,10.60
2023-05-16T06:12:22.950Z,11.10
2023-05-16T06:14:52.521Z,9.35
2023-05-16T06:17:20.816Z,12.75
2023-05-16T06:19:49.088Z,11.15
2023-05-16T06:22:17.320Z,9.90
2023-05-16T06:24:45.518Z,13.70
2023-05-16T06:27:13.879Z,11.95
2023-05-16T06:29:42.138Z,11.82
2023-05-16T06:32:13.314Z,13.07
2023-05-16T06:34:41.779Z,9.45
2023-05-16T06:37:09.967Z,12.20
2023-05-16T06:39:38.685Z,10.60
2023-05-16T06:42:07.166Z,11.23
2023-05-16T06:44:35.350Z,11.15
2023-05-16T06:47:03.720Z,10.90
2023-05-16T06:49:33.379Z,10.25
2023-05-16T06:52:01.837Z,13.57
2023-05-16T06:54:30.029Z,10.73
2023-05-16T06:56:58.360Z,10.93
2023-05-16T06:59:28.156Z,11.25
2023-05-16T07:01:56.506Z,12.40
2023-05-16T07:04:24.729Z,10.43
2023-05-16T07:06:54.659Z,9.35
2023-05-16T07:09:23.143Z,9.77
2023-05-16T07:11:51.411Z,12.77
2023-05-16T07:14:19.626Z,8.65
2023-05-16T07:16:48.058Z,9.63
2023-05-16T07:19:16.416Z,9.45
2023-05-16T07:21:44.756Z,9.73
2023-05-16T07:24:14.468Z,9.20
2023-05-16T07:26:46.497Z,9.70
2023-05-16T07:29:15.208Z,8.38
2023-05-16T07:31:45.535Z,9.07
2023-05-16T07:34:17.255Z,8.38
2023-05-16T07:36:48.210Z,8.00
2023-05-16T07:39:18.078Z,8.63
2023-05-16T07:41:48.907Z,7.70
2023-05-16T07:44:18.578Z,6.13
2023-05-16T07:46:47.171Z,5.93
2023-05-16T07:49:18.281Z,6.43
2023-05-16T07:51:46.684Z,7.22
2023-05-16T07:54:17.651Z,5.47
2023-05-16T07:56:47.550Z,9.35
2023-05-16T07:59:16.303Z,5.35
2023-05-16T08:01:44.976Z,6.97
2023-05-16T08:04:13.315Z,5.95
2023-05-16T08:06:41.802Z,4.40
2023-05-16T08:09:16.447Z,4.28
2023-05-16T08:11:48.514Z,3.80
2023-05-16T08:14:19.817Z,5.65
2023-05-16T08:16:48.399Z,6.43
2023-05-16T08:19:19.190Z,5.38
2023-05-16T08:21:47.815Z,6.22
2023-05-16T08:24:19.317Z,4.93
2023-05-16T08:26:52.268Z,7.30
2023-05-16T08:29:20.980Z,4.03
2023-05-16T08:31:53.477Z,6.90
2023-05-16T08:34:23.634Z,4.25
2023-05-16T08:36:55.747Z,3.90
2023-05-16T08:39:26.728Z,4.72
2023-05-16T08:42:03.693Z,4.40
2023-05-16T08:44:36.621Z,5.05
2023-05-16T08:47:18.399Z,15.20
2023-05-16T08:49:53.700Z,4.15
2023-05-16T08:52:30.376Z,3.83
2023-05-16T08:55:10.119Z,3.90
2023-05-16T08:57:42.938Z,3.65
2023-05-16T09:00:15.930Z,2.75
2023-05-16T09:02:46.726Z,3.38
2023-05-16T09:05:16.807Z,2.67
2023-05-16T09:07:52.757Z,3.05
2023-05-16T09:10:24.508Z,2.20
2023-05-16T09:13:04.592Z,2.97
2023-05-16T09:15:34.740Z,2.40
2023-05-16T09:18:05.504Z,3.15
2023-05-16T09:20:34.303Z,5.05
2023-05-16T09:23:04.770Z,3.63
2023-05-16T09:25:33.278Z,5.15
2023-05-16T09:28:03.806Z,2.30
2023-05-16T09:30:34.441Z,2.45
2023-05-16T09:33:03.345Z,3.05
2023-05-16T09:38:04.186Z,2.05
2023-05-16T09:40:32.588Z,3.90
2023-05-16T09:43:07.033Z,3.55
2023-05-16T09:45:36.422Z,4.43
2023-05-16T09:48:07.247Z,4.05
2023-05-16T09:50:36.301Z,3.97
2023-05-16T09:53:05.594Z,2.70
2023-05-16T09:55:34.460Z,5.40
2023-05-16T09:58:02.626Z,2.90
2023-05-16T10:00:33.339Z,3.72
2023-05-16T10:03:05.107Z,3.35
2023-05-16T10:05:35.949Z,4.25
2023-05-16T10:08:05.242Z,2.72
2023-05-16T10:10:37.516Z,2.95
2023-05-16T10:13:08.470Z,3.85
2023-05-16T10:15:39.824Z,2.25
2023-05-16T10:18:12.204Z,3.40
2023-05-16T10:20:42.638Z,2.95
2023-05-16T10:23:14.625Z,4.57
2023-05-16T10:25:44.592Z,4.78
2023-05-16T10:28:14.019Z,1.70
2023-05-16T10:30:45.107Z,3.85
2023-05-16T10:33:15.085Z,5.13
2023-05-16T10:35:44.141Z,5.95
2023-05-16T10:38:14.648Z,3.13
2023-05-16T10:40:43.642Z,2.50
2023-05-16T10:43:11.946Z,3.50
2023-05-16T10:45:43.255Z,2.20
2023-05-16T10:48:15.485Z,2.40
2023-05-16T10:50:45.482Z,2.17
2023-05-16T10:53:19.747Z,2.17
2023-05-16T10:55:52.507Z,3.15
2023-05-16T10:58:25.392Z,2.45
2023-05-16T11:01:17.821Z,2.30
2023-05-16T11:04:13.384Z,3.20
2023-05-16T11:06:53.335Z,3.65
2023-05-16T11:09:27.860Z,2.00
2023-05-16T11:12:02.955Z,2.92
2023-05-16T11:14:38.444Z,3.03
2023-05-16T11:17:12.221Z,2.53
2023-05-16T11:19:45.886Z,2.35
2023-05-16T11:22:35.545Z,2.90
2023-05-16T11:25:05.881Z,1.80
2023-05-16T11:27:36.438Z,3.47
2023-05-16T11:30:14.199Z,3.42
2023-05-16T11:32:45.486Z,3.60
2023-05-16T11:35:15.418Z,1.92
2023-05-16T11:37:44.006Z,2.13
2023-05-16T11:40:14.731Z,2.90
2023-05-16T11:42:45.222Z,2.50
2023-05-16T11:45:16.662Z,2.65
2023-05-16T11:47:48.079Z,2.25
2023-05-16T11:50:18.396Z,4.63
2023-05-16T11:52:48.670Z,1.88
2023-05-16T11:55:25.082Z,2.35
2023-05-16T11:58:02.500Z,2.38
2023-05-16T12:00:30.730Z,2.63
2023-05-16T12:03:06.416Z,6.00
2023-05-16T12:05:35.723Z,1.67
2023-05-16T12:08:05.797Z,1.85
2023-05-16T12:10:35.263Z,2.75
2023-05-16T12:13:04.533Z,2.80
2023-05-16T12:15:33.113Z,1.92
2023-05-16T12:18:04.661Z,2.28
2023-05-16T12:20:33.524Z,2.30
2023-05-16T12:23:01.853Z,2.08
2023-05-16T12:25:36.449Z,2.05
2023-05-16T12:28:12.625Z,3.88
2023-05-16T12:30:43.712Z,2.97
2023-05-16T12:33:14.650Z,2.95
2023-05-16T12:35:45.001Z,2.25
2023-05-16T12:38:15.127Z,5.63
2023-05-16T12:40:47.534Z,2.38
2023-05-16T12:43:16.537Z,4.45
2023-05-16T12:45:51.757Z,1.48
2023-05-16T12:48:21.887Z,2.33
2023-05-16T12:50:53.512Z,1.75
2023-05-16T12:53:21.836Z,4.30
2023-05-16T12:55:50.278Z,5.00
2023-05-16T12:58:18.945Z,2.00
2023-05-16T13:00:47.315Z,4.15
2023-05-16T13:03:15.725Z,2.33
2023-05-16T13:05:48.089Z,2.70
2023-05-16T13:08:16.344Z,4.78
2023-05-16T13:10:46.690Z,4.78
2023-05-16T13:13:24.945Z,4.55
2023-05-16T13:15:53.763Z,2.17
2023-05-16T13:18:22.068Z,2.35
2023-05-16T13:20:53.032Z,2.05
2023-05-16T13:23:21.362Z,2.13
2023-05-16T13:25:49.777Z,1.88
2023-05-16T13:28:18.069Z,4.43
2023-05-16T13:30:46.336Z,2.50
2023-05-16T13:33:14.588Z,3.42
2023-05-16T13:35:42.925Z,2.75
2023-05-16T13:38:12.533Z,6.80
2023-05-16T13:40:43.131Z,5.10
2023-05-16T13:43:14.458Z,2.47
2023-05-16T13:45:44.276Z,2.88
2023-05-16T13:48:12.648Z,3.28
2023-05-16T13:50:44.227Z,4.35
2023-05-16T13:53:14.159Z,2.70
2023-05-16T13:55:42.590Z,2.45
2023-05-16T13:58:10.845Z,4.72
2023-05-16T14:00:45.322Z,2.75
2023-05-16T14:03:14.577Z,2.90
2023-05-16T14:05:42.991Z,2.10
2023-05-16T14:08:11.328Z,5.43
2023-05-16T14:10:41.084Z,2.50
2023-05-16T14:13:09.461Z,2.85
2023-05-16T14:15:37.685Z,2.53
2023-05-16T14:18:07.572Z,2.30
2023-05-16T14:20:35.903Z,3.40
2023-05-16T14:23:04.162Z,2.45
2023-05-16T14:25:32.515Z,2.15
2023-05-16T14:28:02.260Z,2.33
2023-05-16T14:30:31.650Z,4.45
2023-05-16T14:33:01.323Z,2.05
2023-05-16T14:35:29.928Z,3.17
2023-05-16T14:38:00.815Z,1.73
2023-05-16T14:40:29.048Z,2.75
2023-05-16T14:42:57.276Z,2.85
2023-05-16T14:45:27.382Z,3.45
2023-05-16T14:47:55.877Z,2.10
2023-05-16T14:50:24.254Z,2.22
2023-05-16T14:52:53.145Z,1.77
2023-05-16T14:55:22.698Z,2.33
2023-05-16T14:57:59.037Z,1.65
2023-05-16T15:00:30.526Z,2.28
2023-05-16T15:02:59.233Z,2.30
2023-05-16T15:05:29.335Z,1.95
2023-05-16T15:07:57.820Z,1.88
2023-05-16T15:10:26.486Z,4.45
2023-05-16T15:12:55.059Z,2.03
2023-05-16T15:15:23.291Z,1.90
2023-05-16T15:17:53.908Z,2.10
2023-05-16T15:20:22.849Z,2.42
2023-05-16T15:22:51.177Z,2.85
2023-05-16T15:25:19.562Z,2.95
2023-05-16T15:27:47.805Z,2.58
2023-05-16T15:30:16.421Z,3.20
2023-05-16T15:32:44.776Z,2.67
2023-05-16T15:35:14.571Z,3.42
2023-05-16T15:37:43.872Z,2.55
2023-05-16T15:40:13.325Z,3.50
2023-05-16T15:42:44.203Z,1.80
2023-05-16T15:45:12.984Z,4.85
2023-05-16T15:47:42.254Z,2.88
2023-05-16T15:50:11.477Z,3.92
2023-05-16T15:52:41.283Z,2.47
2023-05-16T15:55:11.989Z,2.63
2023-05-16T15:57:40.655Z,2.05
2023-05-16T16:00:10.065Z,2.88
2023-05-16T16:02:44.923Z,2.25
2023-05-16T16:05:13.228Z,2.03
2023-05-16T16:07:42.987Z,2.65
2023-05-16T16:10:13.972Z,3.35
2023-05-16T16:12:42.168Z,4.05
2023-05-16T16:15:11.970Z,4.95
2023-05-16T16:17:40.471Z,3.60
2023-05-16T16:20:09.775Z,2.25
2023-05-16T16:22:38.022Z,2.33
2023-05-16T16:25:08.837Z,1.88
2023-05-16T16:27:37.046Z,5.63
2023-05-16T16:30:06.222Z,5.70
2023-05-16T16:32:34.525Z,3.20
2023-05-16T16:35:05.268Z,4.90
2023-05-16T16:37:33.613Z,2.83
2023-05-16T16:40:01.893Z,2.80
2023-05-16T16:42:31.544Z,2.17
2023-05-16T16:44:59.751Z,2.42
2023-05-16T16:47:28.646Z,3.22
2023-05-16T16:49:57.090Z,3.13
2023-05-16T16:52:25.628Z,2.28
2023-05-16T16:54:53.905Z,2.38
2023-05-16T16:57:22.224Z,1.98
2023-05-16T16:59:51.935Z,3.08
2023-05-16T17:02:20.402Z,3.58
2023-05-16T17:04:48.653Z,2.85
2023-05-16T17:07:16.883Z,2.20
2023-05-16T17:09:45.229Z,3.63
2023-05-16T17:12:19.037Z,2.33
2023-05-16T17:14:48.015Z,7.43
2023-05-16T17:17:18.477Z,3.35
2023-05-16T17:19:48.143Z,2.97
2023-05-16T17:22:16.681Z,2.90
2023-05-16T17:24:45.426Z,2.90
2023-05-16T17:27:13.828Z,3.58
2023-05-16T17:29:42.613Z,4.85
2023-05-16T17:32:10.981Z,2.97
2023-05-16T17:34:40.766Z,2.97
2023-05-16T17:37:10.780Z,3.05
2023-05-16T17:39:40.361Z,9.50
2023-05-16T17:42:10.941Z,6.45
2023-05-16T17:44:39.635Z,3.35
2023-05-16T17:47:08.379Z,3.10
2023-05-16T17:49:36.674Z,3.42
2023-05-16T17:52:06.920Z,3.83
2023-05-16T17:54:35.155Z,6.45
2023-05-16T17:57:04.277Z,3.35
2023-05-16T17:59:32.592Z,2.90
2023-05-16T18:02:00.866Z,4.07
2023-05-16T18:04:29.086Z,4.45
2023-05-16T18:06:57.336Z,3.58
2023-05-16T18:09:26.944Z,5.15
2023-05-16T18:11:55.305Z,2.80
2023-05-16T18:14:23.763Z,5.10
2023-05-16T18:16:52.017Z,5.50
2023-05-16T18:19:20.758Z,2.75
2023-05-16T18:21:49.132Z,2.90
2023-05-16T18:24:17.530Z,5.85
2023-05-16T18:26:48.534Z,3.08
2023-05-16T18:29:16.931Z,3.00
2023-05-16T18:31:46.248Z,6.07
2023-05-16T18:34:14.546Z,3.17
2023-05-16T18:36:42.803Z,3.03
2023-05-16T18:39:11.358Z,5.25
2023-05-16T18:41:39.724Z,3.47
2023-05-16T18:44:09.452Z,3.95
2023-05-16T18:46:37.685Z,4.90
2023-05-16T18:49:05.911Z,4.30
2023-05-16T18:51:34.182Z,3.50
2023-05-16T18:54:04.048Z,4.72
2023-05-16T18:56:32.383Z,3.35
2023-05-16T18:59:00.646Z,3.75
2023-05-16T19:01:30.401Z,4.50
2023-05-16T19:03:58.826Z,3.35
2023-05-16T19:06:27.355Z,3.55
2023-05-16T19:08:55.683Z,6.32
2023-05-16T19:11:24.037Z,3.38
2023-05-16T19:13:52.269Z,3.92
2023-05-16T19:16:20.725Z,3.70
2023-05-16T19:18:50.590Z,4.15
2023-05-16T19:21:18.943Z,4.65
2023-05-16T19:23:47.265Z,5.35
2023-05-16T19:26:15.511Z,4.35
2023-05-16T19:28:43.842Z,4.93
2023-05-16T19:31:12.301Z,4.28
2023-05-16T19:33:40.826Z,3.83
2023-05-16T19:36:10.568Z,4.60
2023-05-16T19:38:38.876Z,5.25
2023-05-16T19:41:07.116Z,4.63
2023-05-16T19:43:35.541Z,4.05
2023-05-16T19:46:03.798Z,4.32
2023-05-16T19:48:32.136Z,5.07
2023-05-16T19:51:00.417Z,4.30
2023-05-16T19:53:30.151Z,5.93
2023-05-16T19:55:58.426Z,4.60
2023-05-16T19:58:27.164Z,5.20
2023-05-16T20:00:56.624Z,4.18
2023-05-16T20:03:26.686Z,4.57
2023-05-16T20:05:55.132Z,5.15
2023-05-16T20:08:25.737Z,4.88
2023-05-16T20:10:56.088Z,4.60
2023-05-16T20:13:25.916Z,4.85
2023-05-16T20:15:54.420Z,5.82
2023-05-16T20:18:22.921Z,6.30
2023-05-16T20:20:51.490Z,6.97
2023-05-16T20:23:20.033Z,6.15
2023-05-16T20:25:48.496Z,6.18
2023-05-16T20:28:25.719Z,4.85
2023-05-16T20:30:54.207Z,4.95
2023-05-16T20:33:22.829Z,5.03
2023-05-16T20:35:51.363Z,5.57
2023-05-16T20:38:19.772Z,5.75
2023-05-16T20:40:48.348Z,6.25
2023-05-16T20:43:16.731Z,7.63
2023-05-16T20:45:46.630Z,8.48
2023-05-16T20:48:15.185Z,7.07
2023-05-16T20:50:43.726Z,7.65
2023-05-16T20:53:12.196Z,7.95
2023-05-16T20:55:40.659Z,10.30
2023-05-16T20:58:09.200Z,9.55
2023-05-16T21:00:37.731Z,7.63
2023-05-16T21:03:09.862Z,6.60
2023-05-16T21:05:43.754Z,9.63
2023-05-16T21:08:12.140Z,9.80
2023-05-16T21:10:40.601Z,7.97
2023-05-16T21:13:09.068Z,8.48
2023-05-16T21:15:38.530Z,8.70
2023-05-16T21:18:08.479Z,6.93
2023-05-16T21:20:39.521Z,7.05
2023-05-16T21:23:07.960Z,8.00
2023-05-16T21:25:36.481Z,8.65
2023-05-16T21:28:04.877Z,9.43
2023-05-16T21:30:33.109Z,8.60
2023-05-16T21:33:01.526Z,9.73
2023-05-16T21:35:31.271Z,9.60
2023-05-16T21:37:59.584Z,9.80
2023-05-16T21:40:28.890Z,14.68
2023-05-16T21:42:57.128Z,8.77
2023-05-16T21:45:25.369Z,9.52
2023-05-16T21:47:53.739Z,11.05
2023-05-16T21:50:22.079Z,10.70
2023-05-16T21:52:51.693Z,15.23
2023-05-16T21:55:20.026Z,13.40
2023-05-16T21:57:48.402Z,14.77
2023-05-16T22:00:17.835Z,13.60
2023-05-16T22:02:46.241Z,13.95
2023-05-16T22:05:14.722Z,17.70
2023-05-16T22:07:43.430Z,15.77
2023-05-16T22:10:13.496Z,17.92
2023-05-16T22:12:42.000Z,18.75
2023-05-16T22:15:10.786Z,15.10
2023-05-16T22:17:39.347Z,15.50
2023-05-16T22:20:09.246Z,15.75
2023-05-16T22:22:37.578Z,17.08
2023-05-16T22:25:06.647Z,15.60
2023-05-16T22:27:36.224Z,16.88
2023-05-16T22:30:04.896Z,15.77
2023-05-16T22:32:33.262Z,17.83
2023-05-16T22:35:01.599Z,14.63
2023-05-16T22:37:29.915Z,14.82
2023-05-16T22:39:58.082Z,17.75
2023-05-16T22:42:26.342Z,15.73
2023-05-16T22:44:55.890Z,18.13
2023-05-16T22:47:25.401Z,14.13
2023-05-16T22:49:53.678Z,10.57
2023-05-16T22:52:22.694Z,16.33
2023-05-16T22:54:51.062Z,14.75
2023-05-16T22:57:19.376Z,13.50
2023-05-16T22:59:47.606Z,14.30
2023-05-16T23:02:17.222Z,13.57
2023-05-16T23:04:45.460Z,14.85
2023-05-16T23:07:13.788Z,18.88
2023-05-16T23:09:42.031Z,15.10
2023-05-16T23:12:10.518Z,14.20
2023-05-16T23:14:38.738Z,16.67
2023-05-16T23:17:07.133Z,15.27
2023-05-16T23:19:36.789Z,19.65
2023-05-16T23:22:06.235Z,16.73
2023-05-16T23:24:34.566Z,18.02
2023-05-16T23:27:02.800Z,17.65
2023-05-16T23:29:31.037Z,21.30
2023-05-16T23:31:59.306Z,18.40
2023-05-16T23:34:27.586Z,18.23
2023-05-16T23:36:57.239Z,21.85
2023-05-16T23:39:25.495Z,19.20
2023-05-16T23:41:53.661Z,21.23
2023-05-16T23:44:21.944Z,24.55
2023-05-16T23:46:50.074Z,24.73
2023-05-16T23:49:18.275Z,20.17
2023-05-16T23:51:57.295Z,22.65
2023-05-16T23:54:28.065Z,23.92
2023-05-16T23:56:56.276Z,21.45
2023-05-16T23:59:24.735Z,25.35
